Airfield :
LOGIN :

Register | Disclaimer

   EN    FR    IT 

 










Legend :    VFR   Marginal VFR   IFR   Intensive IFR   Very Intensive IFR
Visi :
Ceiling :
>= 8 km
>= 3000ft
5 to 8 km
1000 to 3000 ft
1500m to 5 km
500 to 1000 ft
800 to 1500m
200 to 500 ft
< 800m
< 200 ft
Symbols :   Thunderstorms  Fog  Heavy snow  Heavy precipitations  Wind > 20 kt
SIGMETs :     Misc.  Thunderstorms  Icing  Turbulence  Mountain Waves  Volcanic Ashes







- Airport Elevation : 12 ft
- IATA code : NCE
- Download approach charts


LFMN - Nice

CURRENT METAR :
  • 220030Z 32004KT 9999 FEW013 24/18 Q1012 NOSIG

EXPIRED METARs :
  • 212330Z VRB01KT 9999 FEW016 24/20 Q1012 NOSIG
  • 212300Z 23002KT 9999 FEW030 24/20 Q1012 NOSIG
  • 212230Z VRB01KT 9999 FEW030 24/20 Q1012 NOSIG
  • 212200Z VRB02KT 9999 FEW020 25/21 Q1012 NOSIG

TAF TAF LFMN
Valid from the 21 at 21:00 until the 23 at 03:00 UTC


212000Z 2121/2303 34010KT 9999 FEW020
TEMPO 2121/2201 09010KT
PROB30
TEMPO 2121/2206 BKN014
BECMG 2208/2210 17010KT
BECMG 2220/2222 34010KT
PROB30
TEMPO 2300/2303 24010KT
ATIS : +33 4 93 17 21 16
No reported NOTAMs for that airfield.



MET'MAP, your aeronautical weather chart ! - Copyright ORBIFLY December 2007 - Disclaimer

ORBIFLY MET'MAP TEAM :

Programming & Development : Alexandra Zaïnal
Concept & Development : Baudouin d'Aumeries
Co-Development & Prog : Marc-Olivier Méhu
Technical & hardware support : Manuel Goepfert

Contact : metmap@orbifly.com




SOURCES & CREDITS :

   NOAA